createdAt,value
2023-01-28T00:00:52.929Z,4.93
2023-01-28T00:03:19.536Z,5.53
2023-01-28T00:05:46.114Z,4.88
2023-01-28T00:08:12.623Z,5.25
2023-01-28T00:10:39.269Z,5.18
2023-01-28T00:13:06.827Z,4.95
2023-01-28T00:15:36.386Z,4.47
2023-01-28T00:18:02.996Z,4.88
2023-01-28T00:20:29.507Z,5.82
2023-01-28T00:22:55.987Z,5.85
2023-01-28T00:25:22.515Z,5.43
2023-01-28T00:27:49.986Z,5.10
2023-01-28T00:30:17.287Z,4.95
2023-01-28T00:32:44.703Z,5.38
2023-01-28T00:35:11.421Z,5.80
2023-01-28T00:37:38.018Z,5.70
2023-01-28T00:40:04.880Z,5.28
2023-01-28T00:42:31.493Z,6.07
2023-01-28T00:44:58.047Z,5.43
2023-01-28T00:47:24.624Z,5.07
2023-01-28T00:49:51.282Z,5.05
2023-01-28T00:52:17.786Z,4.90
2023-01-28T00:54:44.293Z,5.32
2023-01-28T00:57:11.003Z,6.00
2023-01-28T00:59:37.485Z,5.97
2023-01-28T01:02:04.008Z,5.90
2023-01-28T01:04:30.701Z,6.85
2023-01-28T01:06:57.254Z,6.57
2023-01-28T01:09:23.848Z,5.70
2023-01-28T01:11:50.374Z,6.22
2023-01-28T01:14:16.915Z,5.88
2023-01-28T01:16:43.473Z,6.90
2023-01-28T01:19:10.038Z,6.00
2023-01-28T01:21:36.582Z,6.50
2023-01-28T01:24:03.358Z,6.97
2023-01-28T01:26:29.968Z,6.82
2023-01-28T01:28:56.680Z,5.60
2023-01-28T01:31:23.296Z,6.57
2023-01-28T01:33:51.293Z,5.93
2023-01-28T01:36:18.805Z,6.50
2023-01-28T01:38:46.003Z,6.53
2023-01-28T01:41:30.353Z,7.03
2023-01-28T01:43:59.751Z,5.97
2023-01-28T01:46:50.511Z,6.25
2023-01-28T01:49:26.741Z,6.32
2023-01-28T01:54:33.983Z,5.80
2023-01-28T01:57:02.787Z,7.00
2023-01-28T01:59:32.505Z,6.75
2023-01-28T02:02:02.046Z,6.68
2023-01-28T02:04:35.392Z,6.65
2023-01-28T02:07:02.661Z,6.90
2023-01-28T02:09:34.046Z,6.00
2023-01-28T02:12:05.791Z,7.68
2023-01-28T02:14:35.768Z,7.00
2023-01-28T02:17:03.258Z,6.88
2023-01-28T02:19:42.705Z,6.63
2023-01-28T02:22:48.135Z,7.40
2023-01-28T02:25:26.421Z,6.72
2023-01-28T02:28:11.859Z,7.65
2023-01-28T02:30:54.450Z,7.60
2023-01-28T02:33:35.491Z,7.25
2023-01-28T02:36:33.638Z,7.90
2023-01-28T02:39:07.809Z,6.53
2023-01-28T02:41:42.486Z,7.20
2023-01-28T02:44:09.042Z,8.15
2023-01-28T02:46:37.176Z,7.90
2023-01-28T02:49:08.075Z,7.90
2023-01-28T02:51:45.083Z,7.45
2023-01-28T02:54:16.975Z,7.97
2023-01-28T02:57:12.482Z,7.45
2023-01-28T02:59:58.753Z,7.70
2023-01-28T03:02:36.355Z,9.10
2023-01-28T03:05:17.166Z,6.68
2023-01-28T03:07:43.760Z,8.32
2023-01-28T03:10:16.043Z,8.38
2023-01-28T03:12:44.831Z,8.27
2023-01-28T03:15:21.890Z,8.07
2023-01-28T03:17:51.202Z,7.90
2023-01-28T03:20:18.046Z,8.77
2023-01-28T03:22:49.132Z,7.53
2023-01-28T03:25:17.463Z,8.75
2023-01-28T03:27:59.377Z,8.80
2023-01-28T03:30:44.052Z,8.07
2023-01-28T03:33:11.514Z,8.40
2023-01-28T03:35:39.095Z,8.40
2023-01-28T03:38:06.936Z,9.27
2023-01-28T03:40:33.490Z,9.80
2023-01-28T03:43:00.006Z,9.80
2023-01-28T03:45:26.584Z,9.23
2023-01-28T03:47:53.137Z,9.98
2023-01-28T03:50:19.660Z,9.60
2023-01-28T03:52:46.263Z,10.18
2023-01-28T03:55:13.250Z,9.88
2023-01-28T03:57:40.586Z,10.35
2023-01-28T04:00:08.050Z,10.82
2023-01-28T04:02:34.616Z,10.23
2023-01-28T04:05:01.109Z,11.02
2023-01-28T04:07:27.659Z,10.60
2023-01-28T04:09:54.186Z,12.35
2023-01-28T04:12:20.749Z,8.70
2023-01-28T04:14:47.264Z,9.57
2023-01-28T04:17:13.803Z,11.32
2023-01-28T04:19:40.388Z,9.70
2023-01-28T04:22:09.959Z,10.30
2023-01-28T04:24:36.523Z,9.55
2023-01-28T04:27:03.115Z,8.63
2023-01-28T04:29:30.164Z,9.90
2023-01-28T04:31:56.696Z,8.57
2023-01-28T04:34:23.275Z,8.68
2023-01-28T04:36:49.821Z,8.02
2023-01-28T04:39:16.408Z,8.02
2023-01-28T04:41:42.960Z,7.13
2023-01-28T04:44:09.579Z,8.00
2023-01-28T04:46:36.165Z,7.95
2023-01-28T04:49:03.110Z,8.45
2023-01-28T04:51:29.655Z,8.15
2023-01-28T04:53:56.157Z,7.93
2023-01-28T04:56:22.662Z,8.02
2023-01-28T04:58:49.161Z,7.90
2023-01-28T05:01:15.773Z,8.10
2023-01-28T05:03:42.410Z,8.63
2023-01-28T05:06:08.908Z,8.38
2023-01-28T05:08:35.529Z,9.13
2023-01-28T05:11:02.022Z,7.85
2023-01-28T05:13:28.522Z,8.10
2023-01-28T05:15:55.122Z,9.10
2023-01-28T05:18:21.634Z,8.52
2023-01-28T05:20:48.219Z,8.65
2023-01-28T05:23:14.810Z,8.25
2023-01-28T05:25:41.327Z,8.65
2023-01-28T05:28:07.857Z,8.68
2023-01-28T05:30:34.489Z,8.27
2023-01-28T05:33:01.030Z,8.00
2023-01-28T05:35:27.561Z,8.55
2023-01-28T05:37:54.142Z,9.25
2023-01-28T05:40:20.776Z,9.48
2023-01-28T05:42:47.315Z,8.60
2023-01-28T05:45:14.335Z,8.27
2023-01-28T05:47:41.053Z,9.07
2023-01-28T05:50:08.621Z,8.65
2023-01-28T05:52:35.129Z,8.85
2023-01-28T05:55:01.682Z,9.65
2023-01-28T05:57:28.357Z,8.30
2023-01-28T05:59:54.955Z,8.52
2023-01-28T06:02:21.527Z,8.38
2023-01-28T06:04:48.059Z,9.93
2023-01-28T06:07:14.566Z,9.48
2023-01-28T06:09:41.524Z,8.48
2023-01-28T06:12:08.172Z,8.88
2023-01-28T06:14:34.747Z,8.55
2023-01-28T06:17:01.284Z,9.43
2023-01-28T06:19:27.837Z,7.32
2023-01-28T06:21:54.391Z,8.15
2023-01-28T06:24:21.268Z,7.63
2023-01-28T06:26:47.870Z,8.15
2023-01-28T06:29:14.369Z,8.38
2023-01-28T06:31:40.910Z,7.57
2023-01-28T06:34:08.700Z,8.43
2023-01-28T06:36:36.461Z,7.38
2023-01-28T06:39:03.502Z,7.28
2023-01-28T06:41:30.290Z,6.72
2023-01-28T06:43:56.843Z,6.38
2023-01-28T06:46:23.431Z,6.72
2023-01-28T06:48:50.098Z,7.85
2023-01-28T06:51:16.807Z,7.40
2023-01-28T06:53:45.800Z,6.07
2023-01-28T06:56:12.598Z,7.43
2023-01-28T06:58:39.112Z,7.85
2023-01-28T07:01:05.618Z,7.03
2023-01-28T07:03:32.173Z,8.50
2023-01-28T07:05:58.727Z,15.65
2023-01-28T07:08:25.262Z,10.27
2023-01-28T07:10:51.764Z,10.27
2023-01-28T07:13:18.291Z,8.75
2023-01-28T07:15:44.861Z,8.23
2023-01-28T07:18:11.403Z,10.50
2023-01-28T07:20:37.895Z,10.30
2023-01-28T07:23:04.473Z,11.48
2023-01-28T07:25:31.026Z,10.38
2023-01-28T07:27:57.678Z,10.07
2023-01-28T07:30:24.380Z,9.93
2023-01-28T07:32:59.109Z,10.07
2023-01-28T07:35:26.310Z,9.98
2023-01-28T07:37:54.583Z,10.27
2023-01-28T07:40:21.319Z,10.18
2023-01-28T07:42:47.878Z,10.30
2023-01-28T07:45:15.115Z,10.98
2023-01-28T07:47:41.823Z,9.88
2023-01-28T07:50:10.417Z,11.05
2023-01-28T07:52:37.846Z,9.43
2023-01-28T07:55:05.381Z,10.13
2023-01-28T07:57:31.919Z,10.30
2023-01-28T07:59:58.418Z,9.88
2023-01-28T08:02:24.958Z,9.55
2023-01-28T08:04:51.563Z,10.23
2023-01-28T08:07:18.129Z,11.77
2023-01-28T08:09:44.692Z,12.13
2023-01-28T08:12:11.226Z,10.55
2023-01-28T08:14:37.748Z,11.80
2023-01-28T08:17:04.316Z,10.15
2023-01-28T08:19:30.861Z,14.05
2023-01-28T08:21:57.510Z,16.52
2023-01-28T08:24:24.043Z,20.55
2023-01-28T08:26:50.596Z,14.15
2023-01-28T08:29:17.154Z,10.88
2023-01-28T08:31:43.823Z,10.70
2023-01-28T08:34:10.382Z,9.60
2023-01-28T08:36:36.934Z,10.90
2023-01-28T08:39:03.793Z,9.70
2023-01-28T08:41:30.762Z,9.80
2023-01-28T08:43:57.255Z,10.38
2023-01-28T08:46:23.825Z,9.68
2023-01-28T08:48:50.950Z,9.68
2023-01-28T08:51:17.506Z,9.52
2023-01-28T08:53:44.025Z,8.52
2023-01-28T08:56:10.555Z,10.43
2023-01-28T08:58:37.063Z,11.43
2023-01-28T09:01:06.940Z,10.00
2023-01-28T09:03:33.617Z,10.18
2023-01-28T09:06:01.692Z,9.45
2023-01-28T09:08:28.320Z,11.07
2023-01-28T09:10:58.929Z,10.48
2023-01-28T09:13:26.040Z,11.07
2023-01-28T09:15:52.960Z,11.50
2023-01-28T09:18:19.770Z,11.70
2023-01-28T09:20:46.748Z,11.07
2023-01-28T09:23:14.051Z,9.75
2023-01-28T09:25:40.641Z,10.00
2023-01-28T09:28:07.454Z,11.90
2023-01-28T09:30:36.034Z,11.18
2023-01-28T09:33:04.261Z,10.88
2023-01-28T09:35:31.126Z,10.55
2023-01-28T09:37:58.624Z,10.70
2023-01-28T09:40:44.848Z,10.10
2023-01-28T09:43:34.296Z,11.77
2023-01-28T09:46:04.425Z,11.32
2023-01-28T09:48:51.779Z,12.18
2023-01-28T09:51:35.691Z,10.45
2023-01-28T09:54:11.112Z,10.48
2023-01-28T09:56:45.552Z,10.38
2023-01-28T09:59:23.040Z,7.55
2023-01-28T10:02:04.172Z,10.43
2023-01-28T10:04:48.364Z,9.60
2023-01-28T10:07:19.879Z,12.52
2023-01-28T10:09:57.480Z,18.95
2023-01-28T10:13:01.300Z,13.95
2023-01-28T10:15:39.740Z,8.30
2023-01-28T10:18:17.521Z,10.63
2023-01-28T10:21:11.013Z,11.18
2023-01-28T10:24:00.200Z,10.90
2023-01-28T10:26:33.619Z,9.70
2023-01-28T10:29:13.139Z,9.63
2023-01-28T10:31:46.185Z,10.30
2023-01-28T10:34:12.887Z,10.77
2023-01-28T10:36:39.406Z,9.95
2023-01-28T10:39:05.995Z,10.98
2023-01-28T10:41:32.575Z,10.15
2023-01-28T10:43:59.175Z,8.38
2023-01-28T10:46:38.185Z,9.68
2023-01-28T10:49:04.699Z,9.50
2023-01-28T10:51:33.466Z,9.50
2023-01-28T10:54:00.268Z,9.82
2023-01-28T10:56:34.261Z,10.73
2023-01-28T10:59:17.175Z,10.07
2023-01-28T11:01:45.504Z,10.38
2023-01-28T11:04:27.415Z,10.35
2023-01-28T11:07:06.890Z,9.57
2023-01-28T11:09:36.316Z,9.88
2023-01-28T11:12:17.962Z,9.35
2023-01-28T11:14:51.443Z,9.13
2023-01-28T11:17:19.888Z,9.63
2023-01-28T11:19:46.690Z,9.45
2023-01-28T11:22:36.114Z,7.95
2023-01-28T11:25:14.243Z,7.30
2023-01-28T11:27:41.084Z,8.48
2023-01-28T11:30:34.743Z,9.80
2023-01-28T11:33:17.802Z,7.97
2023-01-28T11:36:05.772Z,8.45
2023-01-28T11:38:32.490Z,9.32
2023-01-28T11:40:59.284Z,8.48
2023-01-28T11:43:28.618Z,9.00
2023-01-28T11:46:13.000Z,9.07
2023-01-28T11:48:50.836Z,8.45
2023-01-28T11:52:10.906Z,7.30
2023-01-28T11:54:49.044Z,8.50
2023-01-28T11:57:42.656Z,9.65
2023-01-28T12:00:38.315Z,7.00
2023-01-28T12:03:42.822Z,8.68
2023-01-28T12:06:21.046Z,9.05
2023-01-28T12:09:12.960Z,8.27
2023-01-28T12:12:05.056Z,7.72
2023-01-28T12:14:43.573Z,9.90
2023-01-28T12:17:38.850Z,12.38
2023-01-28T12:20:38.398Z,9.52
2023-01-28T12:23:16.907Z,9.10
2023-01-28T12:26:11.542Z,10.10
2023-01-28T12:29:01.992Z,7.57
2023-01-28T12:32:13.251Z,8.02
2023-01-28T12:34:54.795Z,7.97
2023-01-28T12:37:36.415Z,6.55
2023-01-28T12:40:13.249Z,8.02
2023-01-28T12:42:52.220Z,8.23
2023-01-28T12:45:24.764Z,9.13
2023-01-28T12:48:01.077Z,7.43
2023-01-28T12:53:03.006Z,7.38
2023-01-28T12:55:39.684Z,6.95
2023-01-28T12:58:12.257Z,7.85
2023-01-28T13:00:45.195Z,9.35
2023-01-28T13:03:35.509Z,7.63
2023-01-28T13:06:10.808Z,7.85
2023-01-28T13:08:37.534Z,7.97
2023-01-28T13:11:05.271Z,8.55
2023-01-28T13:13:40.194Z,8.75
2023-01-28T13:16:09.172Z,8.93
2023-01-28T13:18:41.579Z,10.15
2023-01-28T13:21:12.120Z,8.80
2023-01-28T13:23:38.643Z,8.27
2023-01-28T13:26:21.357Z,8.10
2023-01-28T13:28:52.455Z,9.30
2023-01-28T13:31:23.679Z,9.27
2023-01-28T13:33:56.340Z,7.03
2023-01-28T13:36:27.102Z,9.25
2023-01-28T13:39:11.876Z,8.27
2023-01-28T13:41:39.256Z,8.20
2023-01-28T13:44:30.891Z,8.40
2023-01-28T13:47:09.455Z,9.70
2023-01-28T13:49:49.381Z,8.88
2023-01-28T13:52:54.856Z,9.35
2023-01-28T13:55:41.760Z,9.32
2023-01-28T13:58:25.111Z,9.48
2023-01-28T14:00:57.460Z,10.80
2023-01-28T14:03:23.925Z,9.45
2023-01-28T14:06:14.972Z,9.95
2023-01-28T14:08:54.149Z,9.65
2023-01-28T14:11:58.221Z,8.02
2023-01-28T14:14:43.395Z,8.82
2023-01-28T14:17:32.466Z,8.90
2023-01-28T14:20:00.659Z,8.25
2023-01-28T14:22:27.466Z,10.70
2023-01-28T14:24:55.278Z,10.15
2023-01-28T14:27:26.498Z,9.65
2023-01-28T14:30:08.105Z,8.57
2023-01-28T14:32:35.248Z,9.52
2023-01-28T14:35:08.682Z,9.90
2023-01-28T14:37:35.594Z,8.65
2023-01-28T14:40:08.223Z,8.50
2023-01-28T14:42:40.655Z,10.00
2023-01-28T14:45:22.740Z,10.45
2023-01-28T14:48:17.296Z,10.25
2023-01-28T14:50:53.211Z,9.77
2023-01-28T14:54:03.875Z,9.93
2023-01-28T14:56:54.468Z,9.40
2023-01-28T14:59:26.371Z,8.60
2023-01-28T15:01:58.991Z,9.38
2023-01-28T15:04:30.182Z,11.00
2023-01-28T15:07:01.297Z,10.98
2023-01-28T15:09:27.839Z,10.80
2023-01-28T15:11:57.438Z,11.30
2023-01-28T15:14:31.978Z,10.48
2023-01-28T15:17:00.317Z,10.52
2023-01-28T15:19:31.114Z,10.45
2023-01-28T15:22:04.214Z,9.63
2023-01-28T15:24:33.670Z,10.02
2023-01-28T15:27:00.737Z,9.48
2023-01-28T15:29:35.887Z,9.23
2023-01-28T15:32:04.179Z,11.30
2023-01-28T15:34:31.900Z,10.18
2023-01-28T15:36:59.888Z,10.60
2023-01-28T15:39:28.422Z,11.48
2023-01-28T15:42:03.292Z,10.70
2023-01-28T15:44:43.702Z,10.10
2023-01-28T15:47:25.325Z,9.70
2023-01-28T15:49:55.584Z,9.35
2023-01-28T15:54:55.606Z,10.45
2023-01-28T15:57:31.562Z,10.77
2023-01-28T16:00:11.154Z,8.93
2023-01-28T16:03:08.076Z,9.07
2023-01-28T16:05:41.262Z,9.70
2023-01-28T16:08:10.976Z,9.40
2023-01-28T16:10:38.187Z,9.48
2023-01-28T16:13:12.879Z,8.73
2023-01-28T16:15:45.447Z,9.75
2023-01-28T16:18:40.867Z,9.55
2023-01-28T16:21:18.562Z,8.27
2023-01-28T16:23:59.824Z,10.23
2023-01-28T16:26:28.719Z,10.05
2023-01-28T16:28:55.571Z,9.23
2023-01-28T16:31:22.525Z,9.15
2023-01-28T16:33:49.094Z,8.98
2023-01-28T16:36:17.432Z,9.32
2023-01-28T16:38:44.005Z,9.52
2023-01-28T16:41:34.887Z,9.68
2023-01-28T16:44:01.468Z,9.00
2023-01-28T16:46:28.135Z,9.43
2023-01-28T16:48:54.716Z,9.10
2023-01-28T16:51:21.235Z,9.02
2023-01-28T16:53:48.611Z,9.43
2023-01-28T16:56:36.029Z,8.38
2023-01-28T16:59:04.434Z,7.95
2023-01-28T17:01:30.927Z,8.95
2023-01-28T17:03:57.673Z,8.80
2023-01-28T17:06:24.265Z,8.43
2023-01-28T17:08:50.789Z,9.93
2023-01-28T17:11:17.349Z,10.00
2023-01-28T17:13:43.868Z,9.30
2023-01-28T17:16:10.418Z,11.38
2023-01-28T17:18:36.965Z,10.95
2023-01-28T17:21:07.309Z,9.85
2023-01-28T17:23:33.940Z,9.23
2023-01-28T17:26:07.883Z,9.63
2023-01-28T17:28:35.051Z,10.02
2023-01-28T17:31:09.490Z,8.73
2023-01-28T17:33:36.101Z,8.45
2023-01-28T17:36:02.670Z,9.55
2023-01-28T17:38:29.226Z,9.23
2023-01-28T17:41:05.706Z,9.15
2023-01-28T17:45:58.882Z,8.18
2023-01-28T17:48:25.485Z,9.98
2023-01-28T17:50:56.829Z,8.55
2023-01-28T17:53:23.747Z,8.48
2023-01-28T17:55:50.344Z,9.40
2023-01-28T17:58:16.890Z,9.43
2023-01-28T18:00:43.531Z,11.05
2023-01-28T18:03:14.102Z,11.85
2023-01-28T18:08:08.686Z,11.50
2023-01-28T18:10:35.613Z,12.13
2023-01-28T18:13:03.390Z,11.38
2023-01-28T18:15:29.946Z,12.20
2023-01-28T18:17:56.434Z,12.65
2023-01-28T18:20:23.042Z,12.02
2023-01-28T18:22:49.548Z,14.82
2023-01-28T18:25:18.722Z,14.50
2023-01-28T18:27:45.713Z,14.90
2023-01-28T18:30:12.639Z,14.82
2023-01-28T18:32:39.131Z,11.30
2023-01-28T18:35:06.312Z,11.68
2023-01-28T18:37:32.939Z,12.15
2023-01-28T18:39:59.446Z,12.77
2023-01-28T18:42:26.020Z,10.32
2023-01-28T18:44:52.564Z,11.07
2023-01-28T18:47:19.091Z,12.50
2023-01-28T18:49:45.601Z,13.25
2023-01-28T18:52:12.122Z,11.23
2023-01-28T18:54:38.652Z,12.80
2023-01-28T18:57:05.510Z,11.63
2023-01-28T18:59:32.070Z,12.88
2023-01-28T19:01:58.656Z,12.40
2023-01-28T19:04:25.273Z,11.00
2023-01-28T19:06:55.867Z,13.85
2023-01-28T19:09:22.437Z,14.07
2023-01-28T19:11:49.170Z,13.10
2023-01-28T19:14:15.769Z,14.98
2023-01-28T19:16:43.025Z,12.27
2023-01-28T19:19:09.973Z,12.75
2023-01-28T19:21:36.570Z,13.20
2023-01-28T19:24:06.371Z,12.02
2023-01-28T19:26:33.291Z,11.07
2023-01-28T19:29:00.022Z,11.88
2023-01-28T19:31:27.274Z,12.20
2023-01-28T19:33:56.328Z,9.65
2023-01-28T19:36:24.216Z,10.93
2023-01-28T19:38:50.766Z,12.40
2023-01-28T19:41:17.389Z,10.10
2023-01-28T19:43:44.574Z,11.07
2023-01-28T19:46:15.184Z,12.85
2023-01-28T19:51:09.586Z,11.40
2023-01-28T19:53:37.210Z,13.35
2023-01-28T19:56:06.235Z,14.93
2023-01-28T19:58:34.948Z,13.98
2023-01-28T20:01:06.824Z,14.82
2023-01-28T20:03:33.895Z,13.27
2023-01-28T20:06:02.147Z,14.77
2023-01-28T20:08:29.037Z,11.63
2023-01-28T20:11:09.596Z,13.10
2023-01-28T20:13:37.395Z,13.85
2023-01-28T20:16:09.174Z,17.60
2023-01-28T20:18:36.076Z,14.40
2023-01-28T20:21:02.635Z,13.80
2023-01-28T20:23:29.272Z,12.38
2023-01-28T20:25:56.592Z,13.73
2023-01-28T20:28:23.219Z,11.20
2023-01-28T20:30:52.830Z,11.68
2023-01-28T20:33:20.229Z,10.70
2023-01-28T20:35:47.317Z,10.38
2023-01-28T20:38:14.208Z,12.10
2023-01-28T20:40:41.493Z,10.75
2023-01-28T20:43:09.356Z,13.13
2023-01-28T20:45:35.921Z,12.75
2023-01-28T20:48:02.560Z,12.80
2023-01-28T20:50:29.185Z,12.13
2023-01-28T20:52:55.780Z,11.25
2023-01-28T20:55:22.451Z,12.60
2023-01-28T20:57:49.011Z,12.25
2023-01-28T21:00:16.082Z,10.85
2023-01-28T21:02:42.869Z,10.65
2023-01-28T21:05:10.371Z,12.85
2023-01-28T21:07:37.003Z,12.88
2023-01-28T21:10:04.434Z,12.82
2023-01-28T21:12:31.231Z,11.18
2023-01-28T21:14:57.808Z,10.85
2023-01-28T21:17:25.270Z,12.27
2023-01-28T21:19:52.018Z,13.10
2023-01-28T21:22:18.614Z,12.02
2023-01-28T21:24:45.174Z,13.40
2023-01-28T21:27:11.889Z,11.57
2023-01-28T21:29:38.440Z,12.85
2023-01-28T21:32:05.142Z,12.55
2023-01-28T21:34:31.831Z,12.68
2023-01-28T21:36:58.307Z,10.93
2023-01-28T21:39:25.466Z,11.15
2023-01-28T21:41:52.046Z,13.75
2023-01-28T21:44:18.599Z,12.93
2023-01-28T21:46:46.280Z,12.13
2023-01-28T21:49:12.887Z,12.27
2023-01-28T21:51:40.114Z,10.45
2023-01-28T21:54:15.247Z,11.48
2023-01-28T21:56:43.563Z,12.60
2023-01-28T21:59:10.660Z,13.10
2023-01-28T22:01:37.287Z,13.07
2023-01-28T22:04:04.143Z,14.43
2023-01-28T22:06:30.932Z,13.10
2023-01-28T22:08:57.548Z,12.00
2023-01-28T22:11:24.064Z,14.27
2023-01-28T22:13:50.655Z,12.73
2023-01-28T22:16:17.212Z,13.55
2023-01-28T22:18:43.825Z,14.00
2023-01-28T22:21:12.100Z,14.30
2023-01-28T22:23:39.208Z,12.95
2023-01-28T22:26:05.878Z,12.82
2023-01-28T22:28:32.475Z,14.13
2023-01-28T22:31:10.762Z,12.90
2023-01-28T22:33:37.419Z,12.57
2023-01-28T22:36:17.036Z,13.27
2023-01-28T22:38:45.317Z,13.00
2023-01-28T22:41:14.729Z,11.70
2023-01-28T22:43:41.785Z,12.45
2023-01-28T22:46:10.122Z,9.95
2023-01-28T22:48:37.691Z,12.32
2023-01-28T22:51:10.747Z,11.98
2023-01-28T22:53:37.313Z,12.23
2023-01-28T22:56:04.086Z,13.50
2023-01-28T22:58:31.791Z,11.80
2023-01-28T23:00:58.593Z,12.60
2023-01-28T23:03:25.383Z,11.75
2023-01-28T23:05:52.488Z,11.25
2023-01-28T23:08:19.738Z,11.30
2023-01-28T23:10:49.167Z,12.68
2023-01-28T23:13:17.892Z,11.40
2023-01-28T23:15:46.127Z,11.63
2023-01-28T23:18:21.554Z,11.48
2023-01-28T23:20:48.111Z,11.73
2023-01-28T23:23:16.722Z,10.63
2023-01-28T23:25:43.256Z,12.13
2023-01-28T23:28:09.788Z,10.77
2023-01-28T23:30:36.445Z,10.98
2023-01-28T23:33:03.099Z,12.35
2023-01-28T23:35:29.841Z,11.60
2023-01-28T23:37:56.621Z,12.93
2023-01-28T23:40:23.148Z,12.43
2023-01-28T23:42:50.869Z,12.63
2023-01-28T23:45:18.409Z,10.48
2023-01-28T23:47:45.074Z,13.73
2023-01-28T23:50:11.685Z,13.07
2023-01-28T23:52:38.262Z,13.40
2023-01-28T23:55:05.533Z,13.32
2023-01-28T23:57:32.601Z,14.07
2023-01-28T23:59:59.148Z,14.43
